Wetterdaten: Woche 13.12.04 - 19.12.04 (KW51)
Datum Zeit Temperatur Luftfeuchte Luftdruck Niederschlag Wind Richtung Taupunkt Windchill
13.12.2004 00:00 -1.3 C 86 % 1031.3 hPa 0.0 l/m 0.4 km/h (0 Bft) O -3.3 C -1.3 C
13.12.2004 01:00 -1.3 C 86 % 1031.3 hPa 0.0 l/m 1.5 km/h (1 Bft) O -3.3 C -1.6 C
13.12.2004 02:00 -1.4 C 86 % 1031.3 hPa 0.0 l/m 1.2 km/h (1 Bft) O-SO -3.5 C -1.6 C
13.12.2004 03:00 -1.4 C 86 % 1031.3 hPa 0.0 l/m 0.1 km/h (0 Bft) N -3.4 C -1.4 C
13.12.2004 04:00 -1.5 C 85 % 1031.3 hPa 0.0 l/m 0.1 km/h (0 Bft) N -3.7 C -1.5 C
13.12.2004 05:00 -1.7 C 84 % 1031.3 hPa 0.0 l/m 1.6 km/h (1 Bft) O-SO -4.0 C -2.2 C
13.12.2004 06:00 -1.8 C 84 % 1032.0 hPa 0.0 l/m 0.6 km/h (0 Bft) O-SO -4.1 C -1.9 C
13.12.2004 07:00 -1.7 C 83 % 1032.4 hPa 0.0 l/m 0.2 km/h (0 Bft) N -4.2 C -1.7 C
13.12.2004 08:00 -1.8 C 83 % 1032.4 hPa 0.0 l/m 0.3 km/h (0 Bft) W -4.3 C -1.8 C
13.12.2004 09:00 -1.7 C 83 % 1033.4 hPa 0.0 l/m 7.9 km/h (2 Bft) O-SO -4.3 C -4.5 C
13.12.2004 10:00 -1.3 C 81 % 1033.3 hPa 0.0 l/m 3.9 km/h (1 Bft) O-SO -4.2 C -2.4 C
13.12.2004 11:00 -0.9 C 78 % 1032.9 hPa 0.0 l/m 3.6 km/h (1 Bft) O-SO -4.2 C -2.0 C
13.12.2004 12:00 -0.3 C 76 % 1032.2 hPa 0.0 l/m 1.7 km/h (1 Bft) O-SO -3.9 C -0.6 C
13.12.2004 13:00 0.2 C 75 % 1031.8 hPa 0.0 l/m 1.5 km/h (1 Bft) O-SO -3.6 C -0.1 C
13.12.2004 14:00 0.6 C 73 % 1031.0 hPa 0.0 l/m 0.6 km/h (0 Bft) O-SO -3.6 C 0.5 C
13.12.2004 15:00 -0.4 C 79 % 1031.1 hPa 0.0 l/m 0.6 km/h (0 Bft) W -3.7 C -0.6 C
13.12.2004 16:00 -1.8 C 84 % 1031.8 hPa 0.0 l/m 0.8 km/h (0 Bft) SO -4.1 C -1.9 C
13.12.2004 17:00 -1.4 C 89 % 1032.3 hPa 0.0 l/m 2.4 km/h (1 Bft) O-SO -3.0 C -2.0 C
13.12.2004 18:00 -0.8 C 87 % 1032.2 hPa 0.0 l/m 1.9 km/h (1 Bft) O-SO -2.6 C -1.4 C
13.12.2004 19:00 -1.0 C 88 % 1032.3 hPa 0.0 l/m 5.8 km/h (1 Bft) O-SO -2.7 C -2.9 C
13.12.2004 20:00 -1.1 C 89 % 1032.6 hPa 0.0 l/m 3.3 km/h (1 Bft) O -2.7 C -2.1 C
13.12.2004 21:00 -1.3 C 89 % 1033.2 hPa 0.0 l/m 3.6 km/h (1 Bft) O-SO -2.8 C -2.5 C
13.12.2004 22:00 -1.4 C 89 % 1033.3 hPa 0.0 l/m 1.8 km/h (1 Bft) O-SO -2.9 C -2.0 C
13.12.2004 23:00 -1.4 C 90 % 1033.2 hPa 0.0 l/m 0.4 km/h (0 Bft) SO -2.9 C -1.5 C
14.12.2004 00:00 -1.5 C 89 % 1033.0 hPa 0.0 l/m 1.0 km/h (0 Bft) O-SO -3.0 C -1.7 C
14.12.2004 01:00 -1.8 C 89 % 1032.9 hPa 0.0 l/m 3.0 km/h (1 Bft) O-SO -3.3 C -2.7 C
14.12.2004 02:00 -1.9 C 90 % 1033.1 hPa 0.0 l/m 1.1 km/h (1 Bft) O-SO -3.3 C -2.0 C
14.12.2004 03:00 -2.0 C 88 % 1033.4 hPa 0.0 l/m 0.7 km/h (0 Bft) W-SW -3.6 C -2.0 C
14.12.2004 04:00 -2.0 C 88 % 1032.6 hPa 0.0 l/m 0.4 km/h (0 Bft) O-SO -3.7 C -2.1 C
14.12.2004 05:00 -2.2 C 88 % 1032.4 hPa 0.0 l/m 3.0 km/h (1 Bft) O-SO -3.9 C -3.1 C
14.12.2004 06:00 -2.3 C 88 % 1032.5 hPa 0.0 l/m 0.3 km/h (0 Bft) O-SO -4.0 C -2.4 C
14.12.2004 07:00 -2.3 C 87 % 1033.3 hPa 0.0 l/m 1.1 km/h (1 Bft) O-SO -4.1 C -2.6 C
14.12.2004 08:00 -2.4 C 86 % 1033.4 hPa 0.0 l/m 2.0 km/h (1 Bft) O-SO -4.4 C -2.9 C
14.12.2004 09:00 -2.1 C 85 % 1033.5 hPa 0.0 l/m 4.4 km/h (1 Bft) O-SO -4.3 C -3.7 C
14.12.2004 10:00 -1.9 C 83 % 1033.4 hPa 0.0 l/m 2.2 km/h (1 Bft) O-SO -4.4 C -2.6 C
14.12.2004 11:00 -1.3 C 80 % 1033.3 hPa 0.0 l/m 2.0 km/h (1 Bft) O-SO -4.3 C -2.0 C
14.12.2004 12:00 -0.8 C 79 % 1032.2 hPa 0.0 l/m 4.9 km/h (1 Bft) O-SO -4.0 C -2.2 C
14.12.2004 13:00 -0.6 C 78 % 1032.2 hPa 0.0 l/m 4.7 km/h (1 Bft) O-SO -4.0 C -2.2 C
14.12.2004 14:00 -0.4 C 79 % 1031.2 hPa 0.0 l/m 5.4 km/h (1 Bft) O-SO -3.6 C -2.1 C
14.12.2004 15:00 -0.6 C 80 % 1031.2 hPa 0.0 l/m 4.9 km/h (1 Bft) O-SO -3.5 C -2.1 C
14.12.2004 16:00 -0.9 C 83 % 1031.2 hPa 0.0 l/m 2.9 km/h (1 Bft) O-SO -3.5 C -1.9 C
14.12.2004 17:00 -1.4 C 85 % 1031.3 hPa 0.0 l/m 4.1 km/h (1 Bft) O-SO -3.6 C -2.5 C
14.12.2004 18:00 -1.7 C 86 % 1031.3 hPa 0.0 l/m 2.2 km/h (1 Bft) O-SO -3.6 C -2.4 C
14.12.2004 19:00 -2.0 C 88 % 1031.4 hPa 0.0 l/m 1.5 km/h (1 Bft) O-SO -3.8 C -2.3 C
14.12.2004 20:00 -2.3 C 88 % 1031.4 hPa 0.0 l/m 0.5 km/h (0 Bft) NO -4.0 C -2.4 C
14.12.2004 21:00 -2.6 C 89 % 1031.5 hPa 0.0 l/m 4.8 km/h (1 Bft) O-SO -4.2 C -4.4 C
14.12.2004 22:00 -2.8 C 90 % 1031.5 hPa 0.0 l/m 1.2 km/h (1 Bft) O-SO -4.3 C -3.2 C
14.12.2004 23:00 -2.8 C 90 % 1031.5 hPa 0.0 l/m 0.8 km/h (0 Bft) O -4.2 C -3.1 C
15.12.2004 00:00 -2.8 C 89 % 1030.5 hPa 0.0 l/m 3.5 km/h (1 Bft) O-SO -4.4 C -4.2 C
15.12.2004 01:00 -2.9 C 89 % 1030.5 hPa 0.0 l/m 1.1 km/h (1 Bft) O-SO -4.5 C -3.2 C
15.12.2004 02:00 -3.0 C 89 % 1030.5 hPa 0.0 l/m 0.9 km/h (0 Bft) O-SO -4.6 C -3.2 C
15.12.2004 03:00 -3.0 C 89 % 1030.1 hPa 0.0 l/m 1.3 km/h (1 Bft) SO -4.6 C -3.4 C
15.12.2004 04:00 -3.1 C 88 % 1029.5 hPa 0.0 l/m 3.6 km/h (1 Bft) O-SO -4.8 C -4.4 C
15.12.2004 05:00 -3.3 C 89 % 1029.5 hPa 0.0 l/m 8.2 km/h (2 Bft) O-SO -4.8 C -6.5 C
15.12.2004 06:00 -3.0 C 89 % 1029.4 hPa 0.0 l/m 4.5 km/h (1 Bft) O -4.6 C -4.7 C
15.12.2004 07:00 -2.9 C 88 % 1029.4 hPa 0.0 l/m 7.4 km/h (2 Bft) O-SO -4.6 C -5.7 C
15.12.2004 08:00 -2.8 C 87 % 1029.7 hPa 0.0 l/m 2.1 km/h (1 Bft) O-SO -4.7 C -3.6 C
15.12.2004 09:00 -2.5 C 84 % 1030.4 hPa 0.0 l/m 2.5 km/h (1 Bft) O-SO -4.8 C -3.2 C
15.12.2004 10:00 -2.0 C 83 % 1030.3 hPa 0.0 l/m 3.0 km/h (1 Bft) O-SO -4.6 C -3.0 C
15.12.2004 11:00 -1.5 C 81 % 1029.9 hPa 0.0 l/m 3.5 km/h (1 Bft) O-SO -4.3 C -2.5 C
15.12.2004 12:00 -0.9 C 79 % 1029.1 hPa 0.0 l/m 3.6 km/h (1 Bft) O-SO -4.1 C -1.9 C
15.12.2004 13:00 -0.3 C 76 % 1028.2 hPa 0.0 l/m 7.3 km/h (2 Bft) O-SO -4.0 C -2.7 C
15.12.2004 14:00 0.3 C 74 % 1027.9 hPa 0.0 l/m 1.4 km/h (1 Bft) O-SO -3.8 C 0.0 C
15.12.2004 15:00 -0.2 C 77 % 1027.1 hPa 0.0 l/m 1.4 km/h (1 Bft) O-SO -3.8 C -0.3 C
15.12.2004 16:00 -2.3 C 82 % 1027.3 hPa 0.0 l/m 0.0 km/h (0 Bft) N -5.0 C -2.3 C
15.12.2004 17:00 -3.0 C 87 % 1027.7 hPa 0.0 l/m 1.2 km/h (1 Bft) O-SO -4.8 C -3.1 C
15.12.2004 18:00 -2.5 C 91 % 1028.2 hPa 0.0 l/m 4.0 km/h (1 Bft) O-SO -3.7 C -3.9 C
15.12.2004 19:00 -2.1 C 91 % 1028.3 hPa 0.0 l/m 5.2 km/h (1 Bft) O -3.3 C -3.7 C
15.12.2004 20:00 -2.1 C 90 % 1028.3 hPa 0.0 l/m 3.1 km/h (1 Bft) O-SO -3.5 C -3.1 C
15.12.2004 21:00 -2.2 C 90 % 1028.3 hPa 0.0 l/m 2.3 km/h (1 Bft) O -3.6 C -3.0 C
15.12.2004 22:00 -2.4 C 90 % 1028.1 hPa 0.0 l/m 2.2 km/h (1 Bft) O-SO -3.9 C -3.0 C
15.12.2004 23:00 -2.6 C 90 % 1027.3 hPa 0.0 l/m 1.4 km/h (1 Bft) O -4.0 C -3.1 C
16.12.2004 00:00 -2.7 C 90 % 1027.3 hPa 0.0 l/m 2.5 km/h (1 Bft) O-SO -4.1 C -3.6 C
16.12.2004 01:00 -2.8 C 91 % 1027.2 hPa 0.0 l/m 2.9 km/h (1 Bft) O-SO -4.1 C -3.9 C
16.12.2004 02:00 -2.9 C 91 % 1026.8 hPa 0.0 l/m 6.5 km/h (2 Bft) O-SO -4.2 C -5.6 C
16.12.2004 03:00 -2.8 C 90 % 1026.3 hPa 0.0 l/m 6.9 km/h (2 Bft) O -4.2 C -5.6 C
16.12.2004 04:00 -2.8 C 91 % 1025.4 hPa 0.0 l/m 7.1 km/h (2 Bft) O-SO -4.1 C -5.5 C
16.12.2004 05:00 -2.8 C 91 % 1025.0 hPa 0.0 l/m 6.7 km/h (2 Bft) O-SO -4.0 C -5.2 C
16.12.2004 06:00 -2.9 C 91 % 1024.2 hPa 0.0 l/m 5.6 km/h (1 Bft) O-SO -4.2 C -5.0 C
16.12.2004 07:00 -2.8 C 91 % 1024.2 hPa 0.0 l/m 6.7 km/h (2 Bft) O-SO -4.0 C -5.3 C
16.12.2004 08:00 -2.7 C 91 % 1023.4 hPa 0.0 l/m 6.3 km/h (2 Bft) O-SO -4.0 C -5.0 C
16.12.2004 09:00 -2.3 C 89 % 1023.1 hPa 0.0 l/m 5.2 km/h (1 Bft) O-SO -3.8 C -4.2 C
16.12.2004 10:00 -1.8 C 86 % 1022.3 hPa 0.0 l/m 5.1 km/h (1 Bft) O-SO -3.9 C -3.5 C
16.12.2004 11:00 -1.3 C 83 % 1021.2 hPa 0.0 l/m 1.7 km/h (1 Bft) O-SO -3.8 C -1.9 C
16.12.2004 12:00 -0.6 C 79 % 1019.5 hPa 0.0 l/m 0.9 km/h (0 Bft) O-SO -3.8 C -0.7 C
16.12.2004 13:00 -0.5 C 78 % 1018.0 hPa 0.0 l/m 0.3 km/h (0 Bft) O-SO -3.8 C -0.5 C
16.12.2004 14:00 -0.2 C 78 % 1017.4 hPa 0.0 l/m 1.8 km/h (1 Bft) O-SO -3.6 C -0.6 C
16.12.2004 15:00 -0.8 C 80 % 1016.6 hPa 0.0 l/m 1.3 km/h (1 Bft) O-SO -3.8 C -1.0 C
16.12.2004 16:00 -1.5 C 83 % 1016.4 hPa 0.0 l/m 0.9 km/h (0 Bft) S-SW -4.0 C -1.6 C
16.12.2004 17:00 -2.0 C 88 % 1015.8 hPa 0.0 l/m 0.6 km/h (0 Bft) O-SO -3.7 C -2.2 C
16.12.2004 18:00 -1.6 C 90 % 1014.7 hPa 0.0 l/m 3.6 km/h (1 Bft) O-SO -3.0 C -2.9 C
16.12.2004 19:00 -1.7 C 90 % 1013.5 hPa 0.0 l/m 0.4 km/h (0 Bft) O -3.1 C -1.7 C
16.12.2004 20:00 -1.8 C 90 % 1012.6 hPa 0.0 l/m 0.4 km/h (0 Bft) O-NO -3.2 C -1.9 C
16.12.2004 21:00 -1.8 C 92 % 1012.6 hPa 0.0 l/m 0.1 km/h (0 Bft) N -2.9 C -1.8 C
16.12.2004 22:00 -1.4 C 91 % 1011.7 hPa 0.0 l/m 0.3 km/h (0 Bft) N -2.6 C -1.5 C
16.12.2004 23:00 -0.6 C 91 % 1011.4 hPa 0.3 l/m 0.4 km/h (0 Bft) O -1.9 C -0.8 C
17.12.2004 00:00 -0.6 C 94 % 1011.4 hPa 0.0 l/m 0.1 km/h (0 Bft) N -1.5 C -0.6 C
17.12.2004 01:00 -0.5 C 96 % 1011.4 hPa 0.0 l/m 0.1 km/h (0 Bft) N -1.1 C -0.5 C
17.12.2004 02:00 -0.2 C 98 % 1011.3 hPa 0.6 l/m 1.1 km/h (0 Bft) O-SO -0.5 C -0.5 C
17.12.2004 03:00 0.3 C 99 % 1012.0 hPa 0.3 l/m 0.7 km/h (0 Bft) NO 0.1 C 0.1 C
17.12.2004 04:00 2.4 C 99 % 1011.6 hPa 0.0 l/m 10.5 km/h (2 Bft) NW 2.3 C -0.1 C
17.12.2004 05:00 4.1 C 100 % 1011.8 hPa 0.0 l/m 10.5 km/h (2 Bft) W-NW 4.1 C 1.8 C
17.12.2004 06:00 3.8 C 98 % 1011.6 hPa 0.0 l/m 3.3 km/h (1 Bft) SO 3.6 C 3.2 C
17.12.2004 07:00 3.9 C 98 % 1011.7 hPa 0.0 l/m 3.9 km/h (1 Bft) SO 3.6 C 3.1 C
17.12.2004 08:00 3.6 C 98 % 1011.5 hPa 0.0 l/m 4.4 km/h (1 Bft) O-SO 3.2 C 2.6 C
17.12.2004 09:00 4.6 C 91 % 1010.8 hPa 0.0 l/m 3.6 km/h (1 Bft) SO 3.2 C 4.0 C
17.12.2004 10:00 6.0 C 77 % 1010.4 hPa 0.0 l/m 6.2 km/h (2 Bft) W 2.3 C 4.9 C
17.12.2004 11:00 6.7 C 67 % 1009.5 hPa 0.0 l/m 7.0 km/h (2 Bft) W-NW 1.0 C 5.5 C
17.12.2004 12:00 6.6 C 69 % 1007.7 hPa 0.0 l/m 0.3 km/h (0 Bft) W 1.4 C 6.6 C
17.12.2004 13:00 7.0 C 64 % 1005.6 hPa 0.0 l/m 13.7 km/h (3 Bft) W 0.6 C 4.7 C
17.12.2004 14:00 6.9 C 62 % 1003.5 hPa 0.0 l/m 25.9 km/h (4 Bft) W 0.2 C 3.0 C
17.12.2004 15:00 6.7 C 61 % 1001.5 hPa 0.0 l/m 27.7 km/h (4 Bft) W -0.2 C 2.5 C
17.12.2004 16:00 6.3 C 61 % 999.5 hPa 0.0 l/m 20.2 km/h (4 Bft) W -0.6 C 2.8 C
17.12.2004 17:00 5.8 C 67 % 997.8 hPa 0.0 l/m 24.0 km/h (4 Bft) W 0.2 C 1.8 C
17.12.2004 18:00 4.7 C 78 % 996.5 hPa 0.0 l/m 22.8 km/h (4 Bft) W-SW 1.3 C 0.5 C
17.12.2004 19:00 4.6 C 83 % 996.1 hPa 0.9 l/m 22.1 km/h (4 Bft) SW 1.9 C 0.4 C
17.12.2004 20:00 4.5 C 84 % 996.2 hPa 0.0 l/m 21.2 km/h (4 Bft) SW 2.1 C 0.4 C
17.12.2004 21:00 5.9 C 78 % 997.3 hPa 0.3 l/m 44.4 km/h (6 Bft) W-NW 2.3 C 0.4 C
17.12.2004 22:00 5.7 C 75 % 998.3 hPa 0.3 l/m 59.1 km/h (7 Bft) W-NW 1.5 C -0.8 C
17.12.2004 23:00 5.0 C 79 % 1000.1 hPa 0.6 l/m 58.0 km/h (7 Bft) W-NW 1.6 C -1.8 C
18.12.2004 00:00 4.2 C 83 % 1002.0 hPa 0.9 l/m 60.5 km/h (7 Bft) W-NW 1.6 C -2.9 C
18.12.2004 01:00 3.8 C 78 % 1004.3 hPa 0.0 l/m 54.9 km/h (7 Bft) W-NW 0.2 C -3.2 C
18.12.2004 02:00 3.4 C 70 % 1005.6 hPa 0.0 l/m 49.4 km/h (6 Bft) W-NW -1.6 C -3.4 C
18.12.2004 03:00 2.9 C 63 % 1007.6 hPa 0.0 l/m 49.0 km/h (6 Bft) W-NW -3.5 C -4.1 C
18.12.2004 04:00 2.5 C 68 % 1009.3 hPa 0.0 l/m 38.1 km/h (5 Bft) W-NW -2.7 C -3.8 C
18.12.2004 05:00 1.3 C 81 % 1010.9 hPa 0.0 l/m 27.8 km/h (4 Bft) W-NW -1.7 C -4.5 C
18.12.2004 06:00 1.2 C 81 % 1012.4 hPa 0.0 l/m 25.0 km/h (4 Bft) W-NW -1.7 C -4.2 C
18.12.2004 07:00 1.2 C 82 % 1013.4 hPa 0.0 l/m 28.2 km/h (4 Bft) W-NW -1.5 C -4.6 C
18.12.2004 08:00 1.2 C 83 % 1014.3 hPa 0.0 l/m 19.8 km/h (4 Bft) W-NW -1.3 C -3.4 C
18.12.2004 09:00 1.3 C 85 % 1015.5 hPa 0.0 l/m 26.9 km/h (4 Bft) W-NW -1.0 C -4.4 C
18.12.2004 10:00 1.8 C 84 % 1016.2 hPa 0.0 l/m 29.9 km/h (5 Bft) W-NW -0.7 C -4.1 C
18.12.2004 11:00 2.3 C 80 % 1016.4 hPa 0.0 l/m 30.6 km/h (5 Bft) W-NW -0.8 C -3.5 C
18.12.2004 12:00 2.9 C 73 % 1017.1 hPa 0.0 l/m 27.7 km/h (4 Bft) W-NW -1.6 C -2.4 C
18.12.2004 13:00 3.2 C 68 % 1016.7 hPa 0.0 l/m 18.9 km/h (3 Bft) W-NW -2.2 C -1.1 C
18.12.2004 14:00 4.5 C 56 % 1015.9 hPa 0.0 l/m 26.4 km/h (4 Bft) W-NW -3.6 C -0.2 C
18.12.2004 15:00 3.6 C 57 % 1016.0 hPa 0.0 l/m 14.8 km/h (3 Bft) W-NW -4.1 C 0.3 C
18.12.2004 16:00 1.7 C 64 % 1016.3 hPa 0.0 l/m 9.8 km/h (2 Bft) W -4.4 C -0.7 C
18.12.2004 17:00 2.9 C 51 % 1016.1 hPa 0.0 l/m 26.4 km/h (4 Bft) W-NW -6.2 C -2.2 C
18.12.2004 18:00 2.7 C 51 % 1016.1 hPa 0.0 l/m 9.5 km/h (2 Bft) W -6.6 C 0.3 C
18.12.2004 19:00 2.3 C 57 % 1015.5 hPa 0.0 l/m 8.9 km/h (2 Bft) S -5.2 C 0.1 C
18.12.2004 20:00 2.3 C 61 % 1015.1 hPa 0.0 l/m 10.6 km/h (2 Bft) S-SW -4.5 C -0.6 C
18.12.2004 21:00 2.3 C 61 % 1014.2 hPa 0.0 l/m 12.7 km/h (3 Bft) SW -4.5 C -0.8 C
18.12.2004 22:00 2.6 C 62 % 1013.2 hPa 0.0 l/m 9.6 km/h (2 Bft) S-SO -4.1 C 0.2 C
18.12.2004 23:00 2.6 C 59 % 1012.4 hPa 0.0 l/m 4.0 km/h (1 Bft) SO -4.5 C 1.8 C
19.12.2004 00:00 2.4 C 62 % 1011.3 hPa 0.0 l/m 5.7 km/h (1 Bft) SO -4.1 C 1.0 C
19.12.2004 01:00 2.2 C 63 % 1009.9 hPa 0.0 l/m 3.0 km/h (1 Bft) SO -4.1 C 1.5 C
19.12.2004 02:00 2.2 C 65 % 1008.9 hPa 0.0 l/m 4.6 km/h (1 Bft) SO -3.7 C 1.3 C
19.12.2004 03:00 0.4 C 84 % 1008.3 hPa 0.9 l/m 2.4 km/h (1 Bft) SO -2.0 C -0.0 C
19.12.2004 04:00 0.0 C 92 % 1006.7 hPa 0.9 l/m 0.6 km/h (0 Bft) O-SO -1.1 C -0.1 C
19.12.2004 05:00 -0.0 C 95 % 1005.1 hPa 0.9 l/m 0.0 km/h (0 Bft) N -0.8 C -0.0 C
19.12.2004 06:00 -0.0 C 96 % 1003.7 hPa 1.5 l/m 0.0 km/h (0 Bft) N -0.6 C -0.0 C
19.12.2004 07:00 0.2 C 97 % 1002.5 hPa 4.6 l/m 0.0 km/h (0 Bft) N -0.2 C 0.2 C
19.12.2004 08:00 0.1 C 97 % 1001.9 hPa 4.0 l/m 0.0 km/h (0 Bft) N -0.3 C 0.1 C
19.12.2004 09:00 0.4 C 97 % 1001.3 hPa 4.0 l/m 0.0 km/h (0 Bft) N 0.0 C 0.4 C
19.12.2004 10:00 1.0 C 98 % 1000.8 hPa 3.1 l/m 0.5 km/h (0 Bft) O-SO 0.7 C 0.9 C
19.12.2004 11:00 1.2 C 98 % 1000.7 hPa 0.6 l/m 0.0 km/h (0 Bft) N 1.0 C 1.2 C
19.12.2004 12:00 1.7 C 99 % 1000.7 hPa 0.9 l/m 0.2 km/h (0 Bft) W 1.5 C 1.7 C
19.12.2004 13:00 1.8 C 99 % 1000.8 hPa 2.2 l/m 0.2 km/h (0 Bft) S-SO 1.7 C 1.8 C
19.12.2004 14:00 1.4 C 99 % 1002.3 hPa 3.1 l/m 5.4 km/h (1 Bft) NO 1.3 C 0.2 C
19.12.2004 15:00 0.2 C 98 % 1003.6 hPa 2.2 l/m 0.5 km/h (0 Bft) NO -0.0 C 0.1 C
19.12.2004 16:00 -0.1 C 99 % 1004.5 hPa 2.5 l/m 0.0 km/h (0 Bft) N -0.2 C -0.1 C
19.12.2004 17:00 0.1 C 100 % 1005.7 hPa 1.9 l/m 0.1 km/h (0 Bft) N 0.1 C 0.1 C
19.12.2004 18:00 0.3 C 100 % 1007.3 hPa 1.2 l/m 0.1 km/h (0 Bft) N 0.3 C 0.3 C
19.12.2004 19:00 0.5 C 100 % 1008.8 hPa 0.0 l/m 0.4 km/h (0 Bft) O-NO 0.5 C 0.5 C
19.12.2004 20:00 0.5 C 98 % 1010.3 hPa 0.0 l/m 1.7 km/h (1 Bft) N-NO 0.2 C 0.2 C
19.12.2004 21:00 0.4 C 94 % 1011.7 hPa 0.0 l/m 0.5 km/h (0 Bft) N-NO -0.5 C 0.3 C
19.12.2004 22:00 0.1 C 91 % 1012.8 hPa 0.0 l/m 1.1 km/h (0 Bft) N-NO -1.3 C -0.2 C
19.12.2004 23:00 -0.3 C 84 % 1013.7 hPa 0.0 l/m 1.9 km/h (1 Bft) NO -2.6 C -0.6 C
Min-Datum _ 15.12.04 18.12.04 17.12.04 - 13.12.04 - 18.12.04 15.12.04
_ Min-Zeit 05:20 17:36 20:57 - 00:05 - 18:33 07:38
Minimum _ -3.4 C 49 % 996.0 hPa - 0.0 km/h (0 Bft) - -6.8 C -8.0 C
Max-Datum _ 17.12.04 17.12.04 14.12.04 19.12.04 17.12.04 - 17.12.04 17.12.04
_ Max-Zeit 13:56 03:56 08:32 06:00 22:53 - 05:36 13:39
Maximum _ 7.4 C 100 % 1033.5 hPa 4.6 l/m 83.8 km/h
W-NW (9 Bft)
- 4.3 C 7.0 C
Durchschnitt _ 0.1 C 84 % 1019.7 hPa #39.1 l/m 7.7 km/h (2 Bft) O-SO -2.5 C -1.5 C

Durchschnitt Minimum Temp.-0.3 C
Durchschnitt Maximum Temp.0.4 C
© Kaiko 2004